createdAt,value
2022-07-29T00:01:42.129Z,99.90
2022-07-29T00:04:09.285Z,99.90
2022-07-29T00:06:36.439Z,99.90
2022-07-29T00:09:04.006Z,99.90
2022-07-29T00:11:31.210Z,99.90
2022-07-29T00:13:58.858Z,99.90
2022-07-29T00:16:27.244Z,99.90
2022-07-29T00:19:00.619Z,99.90
2022-07-29T00:21:29.405Z,99.90
2022-07-29T00:23:56.666Z,99.90
2022-07-29T00:26:24.084Z,99.90
2022-07-29T00:28:51.057Z,99.90
2022-07-29T00:31:18.169Z,99.90
2022-07-29T00:33:45.377Z,99.90
2022-07-29T00:36:12.480Z,99.90
2022-07-29T00:38:39.472Z,99.90
2022-07-29T00:41:06.396Z,99.90
2022-07-29T00:43:33.352Z,99.90
2022-07-29T00:46:00.810Z,99.90
2022-07-29T00:48:27.790Z,99.90
2022-07-29T00:50:58.698Z,99.90
2022-07-29T00:53:26.704Z,99.90
2022-07-29T00:55:58.172Z,99.90
2022-07-29T00:58:25.906Z,99.90
2022-07-29T01:00:54.496Z,99.90
2022-07-29T01:03:21.684Z,99.90
2022-07-29T01:05:51.591Z,99.90
2022-07-29T01:08:20.206Z,99.90
2022-07-29T01:10:48.376Z,99.90
2022-07-29T01:13:18.720Z,99.90
2022-07-29T01:15:50.454Z,99.90
2022-07-29T01:18:22.794Z,99.90
2022-07-29T01:21:06.366Z,99.90
2022-07-29T01:23:42.319Z,99.90
2022-07-29T01:26:46.129Z,99.90
2022-07-29T01:29:16.752Z,99.90
2022-07-29T01:31:59.143Z,99.90
2022-07-29T01:34:50.420Z,99.90
2022-07-29T01:37:28.587Z,99.90
2022-07-29T01:39:58.271Z,99.90
2022-07-29T01:42:35.162Z,99.90
2022-07-29T01:45:24.650Z,99.90
2022-07-29T01:47:57.458Z,99.90
2022-07-29T01:50:31.439Z,99.90
2022-07-29T01:53:01.635Z,99.90
2022-07-29T01:55:33.690Z,99.90
2022-07-29T01:58:03.244Z,99.90
2022-07-29T02:00:33.486Z,99.90
2022-07-29T02:03:06.626Z,99.90
2022-07-29T02:05:36.244Z,99.90
2022-07-29T02:08:04.850Z,99.90
2022-07-29T02:10:35.295Z,99.90
2022-07-29T02:13:04.037Z,99.90
2022-07-29T02:15:34.497Z,99.90
2022-07-29T02:18:19.958Z,99.90
2022-07-29T02:20:50.558Z,99.90
2022-07-29T02:23:21.657Z,99.90
2022-07-29T02:25:52.479Z,99.90
2022-07-29T02:28:22.895Z,99.90
2022-07-29T02:30:53.606Z,99.90
2022-07-29T02:33:22.883Z,99.90
2022-07-29T02:35:51.165Z,99.90
2022-07-29T02:38:37.638Z,99.90
2022-07-29T02:41:13.521Z,99.90
2022-07-29T02:43:44.719Z,99.90
2022-07-29T02:46:28.624Z,99.90
2022-07-29T02:49:20.421Z,99.90
2022-07-29T02:51:54.073Z,99.90
2022-07-29T02:54:33.209Z,99.90
2022-07-29T02:57:04.983Z,99.90
2022-07-29T02:59:35.281Z,99.90
2022-07-29T03:02:06.029Z,99.90
2022-07-29T03:04:35.454Z,99.90
2022-07-29T03:07:04.980Z,99.90
2022-07-29T03:09:32.497Z,99.90
2022-07-29T03:12:01.073Z,99.90
2022-07-29T03:14:28.949Z,99.90
2022-07-29T03:16:57.946Z,99.90
2022-07-29T03:19:26.440Z,99.90
2022-07-29T03:21:56.189Z,99.90
2022-07-29T03:24:41.005Z,99.90
2022-07-29T03:27:08.060Z,99.90
2022-07-29T03:29:35.742Z,99.90
2022-07-29T03:32:08.389Z,99.90
2022-07-29T03:34:37.591Z,99.90
2022-07-29T03:37:05.302Z,99.90
2022-07-29T03:39:37.380Z,99.90
2022-07-29T03:42:08.043Z,99.90
2022-07-29T03:44:37.325Z,99.90
2022-07-29T03:47:07.918Z,99.90
2022-07-29T03:49:37.300Z,99.90
2022-07-29T03:52:05.743Z,99.90
2022-07-29T03:54:33.141Z,99.90
2022-07-29T03:57:02.719Z,99.90
2022-07-29T03:59:32.027Z,99.90
2022-07-29T04:02:01.244Z,99.90
2022-07-29T04:04:28.462Z,99.90
2022-07-29T04:06:55.870Z,99.90
2022-07-29T04:09:22.914Z,99.90
2022-07-29T04:12:02.433Z,99.90
2022-07-29T04:14:34.717Z,99.90
2022-07-29T04:17:05.259Z,99.90
2022-07-29T04:19:33.450Z,99.90
2022-07-29T04:22:00.971Z,99.90
2022-07-29T04:24:28.869Z,99.90
2022-07-29T04:26:58.553Z,99.90
2022-07-29T04:29:25.826Z,99.90
2022-07-29T04:31:53.178Z,99.90
2022-07-29T04:34:20.837Z,99.90
2022-07-29T04:36:48.133Z,99.90
2022-07-29T04:39:19.297Z,99.90
2022-07-29T04:41:50.513Z,99.90
2022-07-29T04:44:18.076Z,99.90
2022-07-29T04:46:46.413Z,99.90
2022-07-29T04:49:14.323Z,99.90
2022-07-29T04:51:41.559Z,99.90
2022-07-29T04:54:09.188Z,99.90
2022-07-29T04:56:36.131Z,99.90
2022-07-29T04:59:03.429Z,99.90
2022-07-29T05:01:30.579Z,99.90
2022-07-29T05:04:00.703Z,99.90
2022-07-29T05:06:27.859Z,99.90
2022-07-29T05:08:54.802Z,99.90
2022-07-29T05:11:24.985Z,99.90
2022-07-29T05:13:55.888Z,99.90
2022-07-29T05:16:23.504Z,99.90
2022-07-29T05:18:51.768Z,99.90
2022-07-29T05:21:19.102Z,99.90
2022-07-29T05:23:46.038Z,99.90
2022-07-29T05:26:13.214Z,99.90
2022-07-29T05:28:40.252Z,99.90
2022-07-29T05:31:07.524Z,99.90
2022-07-29T05:33:37.054Z,99.90
2022-07-29T05:36:09.176Z,99.90
2022-07-29T05:38:37.107Z,99.90
2022-07-29T05:41:05.272Z,99.90
2022-07-29T05:43:32.840Z,99.90
2022-07-29T05:46:00.283Z,99.90
2022-07-29T05:48:27.464Z,99.90
2022-07-29T05:50:55.508Z,99.90
2022-07-29T05:53:22.899Z,99.90
2022-07-29T05:55:50.644Z,99.90
2022-07-29T05:58:17.715Z,99.90
2022-07-29T06:00:45.157Z,99.90
2022-07-29T06:03:12.592Z,99.90
2022-07-29T06:05:39.563Z,99.90
2022-07-29T06:08:08.349Z,99.90
2022-07-29T06:10:38.871Z,99.90
2022-07-29T06:13:06.334Z,99.90
2022-07-29T06:15:34.348Z,99.90
2022-07-29T06:18:02.313Z,99.90
2022-07-29T06:20:33.176Z,99.90
2022-07-29T06:23:01.854Z,99.90
2022-07-29T06:25:38.150Z,99.90
2022-07-29T06:28:05.350Z,99.90
2022-07-29T06:30:32.534Z,99.90
2022-07-29T06:33:01.319Z,99.90
2022-07-29T06:35:41.413Z,99.90
2022-07-29T06:38:25.133Z,99.90
2022-07-29T06:41:01.449Z,99.90
2022-07-29T06:43:32.546Z,99.90
2022-07-29T06:46:04.937Z,99.90
2022-07-29T06:48:32.501Z,99.90
2022-07-29T06:50:59.990Z,99.90
2022-07-29T06:53:28.013Z,99.90
2022-07-29T06:55:54.987Z,99.90
2022-07-29T06:58:22.396Z,99.90
2022-07-29T07:01:05.373Z,99.90
2022-07-29T07:03:35.484Z,99.90
2022-07-29T07:06:03.019Z,99.90
2022-07-29T07:08:30.029Z,99.90
2022-07-29T07:10:57.872Z,99.90
2022-07-29T07:13:25.453Z,99.90
2022-07-29T07:15:53.205Z,99.90
2022-07-29T07:18:20.515Z,99.90
2022-07-29T07:20:49.196Z,99.90
2022-07-29T07:23:16.166Z,99.90
2022-07-29T07:25:43.153Z,99.90
2022-07-29T07:28:10.462Z,99.90
2022-07-29T07:30:37.893Z,99.90
2022-07-29T07:33:07.017Z,99.90
2022-07-29T07:35:35.538Z,99.90
2022-07-29T07:38:04.212Z,99.90
2022-07-29T07:40:33.175Z,99.90
2022-07-29T07:43:02.522Z,99.90
2022-07-29T07:45:29.901Z,99.90
2022-07-29T07:47:56.855Z,99.90
2022-07-29T07:50:23.929Z,99.90
2022-07-29T07:52:54.140Z,99.90
2022-07-29T07:55:22.121Z,99.90
2022-07-29T07:57:49.427Z,99.90
2022-07-29T08:00:18.756Z,99.90
2022-07-29T08:02:46.182Z,99.90
2022-07-29T08:05:18.067Z,99.90
2022-07-29T08:07:47.122Z,99.90
2022-07-29T08:10:37.170Z,99.90
2022-07-29T08:13:09.264Z,99.90
2022-07-29T08:15:36.869Z,99.90
2022-07-29T08:18:08.610Z,99.90
2022-07-29T08:20:39.346Z,99.90
2022-07-29T08:23:10.571Z,99.90
2022-07-29T08:25:40.278Z,99.90
2022-07-29T08:28:07.787Z,99.90
2022-07-29T08:30:35.901Z,99.90
2022-07-29T08:33:04.782Z,99.90
2022-07-29T08:35:35.645Z,99.90
2022-07-29T08:38:04.541Z,99.90
2022-07-29T08:40:34.162Z,99.90
2022-07-29T08:43:08.845Z,99.90
2022-07-29T08:45:49.141Z,99.90
2022-07-29T08:48:23.094Z,99.90
2022-07-29T08:50:57.802Z,99.90
2022-07-29T08:53:28.257Z,99.90
2022-07-29T08:55:56.326Z,99.90
2022-07-29T08:58:25.594Z,99.90
2022-07-29T09:00:56.925Z,99.90
2022-07-29T09:03:26.719Z,99.90
2022-07-29T09:05:54.802Z,99.90
2022-07-29T09:08:22.848Z,99.90
2022-07-29T09:10:50.323Z,99.90
2022-07-29T09:13:17.261Z,99.90
2022-07-29T09:15:45.911Z,99.90
2022-07-29T09:18:20.421Z,99.90
2022-07-29T09:21:16.444Z,99.90
2022-07-29T09:24:10.459Z,99.90
2022-07-29T09:26:43.325Z,99.90
2022-07-29T09:29:14.638Z,99.90
2022-07-29T09:31:44.717Z,99.90
2022-07-29T09:34:14.812Z,99.90
2022-07-29T09:36:48.045Z,99.90
2022-07-29T09:39:17.782Z,99.90
2022-07-29T09:41:56.932Z,99.90
2022-07-29T09:44:25.277Z,99.90
2022-07-29T09:47:07.130Z,99.90
2022-07-29T09:49:50.748Z,99.90
2022-07-29T09:52:18.845Z,99.90
2022-07-29T09:54:46.514Z,99.90
2022-07-29T09:57:31.143Z,99.90
2022-07-29T10:00:09.308Z,99.90
2022-07-29T10:02:41.507Z,99.90
2022-07-29T10:05:20.735Z,99.90
2022-07-29T10:07:53.855Z,99.90
2022-07-29T10:10:29.638Z,99.90
2022-07-29T10:13:04.388Z,99.90
2022-07-29T10:15:39.645Z,99.90
2022-07-29T10:18:10.782Z,99.90
2022-07-29T10:20:38.832Z,99.90
2022-07-29T10:23:06.602Z,99.90
2022-07-29T10:25:34.141Z,99.90
2022-07-29T10:28:01.275Z,99.90
2022-07-29T10:30:30.240Z,99.90
2022-07-29T10:32:57.278Z,99.90
2022-07-29T10:35:35.991Z,99.90
2022-07-29T10:38:29.138Z,99.90
2022-07-29T10:41:29.088Z,99.90
2022-07-29T10:44:19.088Z,99.90
2022-07-29T10:46:48.536Z,99.90
2022-07-29T10:49:24.833Z,99.90
2022-07-29T10:51:57.438Z,99.90
2022-07-29T10:55:00.518Z,99.90
2022-07-29T10:57:53.042Z,99.90
2022-07-29T11:00:18.686Z,99.90
2022-07-29T11:02:50.026Z,99.90
2022-07-29T11:05:21.858Z,99.90
2022-07-29T11:08:19.958Z,99.90
2022-07-29T11:10:49.961Z,99.90
2022-07-29T11:13:46.507Z,99.90
2022-07-29T11:16:16.053Z,99.90
2022-07-29T11:19:14.400Z,99.90
2022-07-29T11:21:54.070Z,99.90
2022-07-29T11:24:33.187Z,99.90
2022-07-29T11:27:13.797Z,99.90
2022-07-29T11:30:04.361Z,99.90
2022-07-29T11:32:40.371Z,99.90
2022-07-29T11:35:37.215Z,99.90
2022-07-29T11:38:29.336Z,99.90
2022-07-29T11:41:17.500Z,99.90
2022-07-29T11:44:01.273Z,99.90
2022-07-29T11:46:50.512Z,99.90
2022-07-29T11:49:31.760Z,99.90
2022-07-29T11:52:03.940Z,99.90
2022-07-29T11:54:38.956Z,99.90
2022-07-29T11:57:21.890Z,99.90
2022-07-29T11:59:50.783Z,99.90
2022-07-29T12:02:37.066Z,99.90
2022-07-29T12:05:10.800Z,99.90
2022-07-29T12:07:40.962Z,99.90
2022-07-29T12:10:19.928Z,99.90
2022-07-29T12:12:56.732Z,99.90
2022-07-29T12:15:39.486Z,99.40
2022-07-29T12:18:18.665Z,99.60
2022-07-29T12:20:47.214Z,99.80
2022-07-29T12:23:16.243Z,99.80
2022-07-29T12:25:45.115Z,99.80
2022-07-29T12:28:26.808Z,99.30
2022-07-29T12:30:55.033Z,98.10
2022-07-29T12:33:30.557Z,98.80
2022-07-29T12:36:08.814Z,99.10
2022-07-29T12:38:41.318Z,98.60
2022-07-29T12:41:08.767Z,99.10
2022-07-29T12:43:38.566Z,98.30
2022-07-29T12:46:14.976Z,97.40
2022-07-29T12:48:44.509Z,96.40
2022-07-29T12:51:15.516Z,96.40
2022-07-29T12:53:42.709Z,96.20
2022-07-29T12:59:13.963Z,96.50
2022-07-29T13:01:41.071Z,96.80
2022-07-29T13:04:08.242Z,96.50
2022-07-29T13:08:29.458Z,95.70
2022-07-29T13:09:42.686Z,95.80
2022-07-29T13:12:12.127Z,94.70
2022-07-29T13:14:47.202Z,95.50
2022-07-29T13:17:17.281Z,94.50
2022-07-29T13:19:49.503Z,94.30
2022-07-29T13:22:18.651Z,94.50
2022-07-29T13:24:55.948Z,94.00
2022-07-29T13:27:24.789Z,92.70
2022-07-29T13:29:55.481Z,93.80
2022-07-29T13:32:28.356Z,93.20
2022-07-29T13:34:57.757Z,93.20
2022-07-29T13:37:28.357Z,93.10
2022-07-29T13:39:56.948Z,91.20
2022-07-29T13:42:25.838Z,92.40
2022-07-29T13:44:53.209Z,92.50
2022-07-29T13:47:21.421Z,93.40
2022-07-29T13:49:50.054Z,92.80
2022-07-29T13:52:17.757Z,92.00
2022-07-29T13:54:45.391Z,92.50
2022-07-29T13:57:13.674Z,92.80
2022-07-29T13:59:42.924Z,93.10
2022-07-29T14:02:11.507Z,93.60
2022-07-29T14:04:39.659Z,94.20
2022-07-29T14:07:08.000Z,93.90
2022-07-29T14:09:41.018Z,93.10
2022-07-29T14:12:13.159Z,91.60
2022-07-29T14:14:42.560Z,91.40
2022-07-29T14:17:10.563Z,89.70
2022-07-29T14:19:40.423Z,90.00
2022-07-29T14:22:08.978Z,90.70
2022-07-29T14:24:37.547Z,90.80
2022-07-29T14:27:08.752Z,89.70
2022-07-29T14:29:37.560Z,89.50
2022-07-29T14:32:11.371Z,90.00
2022-07-29T14:34:39.104Z,89.00
2022-07-29T14:37:07.551Z,90.40
2022-07-29T14:39:42.168Z,91.80
2022-07-29T14:42:12.554Z,90.00
2022-07-29T14:44:42.757Z,90.20
2022-07-29T14:47:10.425Z,88.40
2022-07-29T14:49:37.801Z,87.60
2022-07-29T14:52:05.154Z,88.90
2022-07-29T14:54:32.189Z,90.20
2022-07-29T14:56:59.838Z,90.40
2022-07-29T14:59:27.654Z,90.40
2022-07-29T15:01:56.888Z,90.50
2022-07-29T15:04:24.738Z,91.00
2022-07-29T15:06:53.301Z,91.00
2022-07-29T15:09:21.450Z,90.90
2022-07-29T15:11:48.609Z,90.60
2022-07-29T15:14:15.961Z,90.50
2022-07-29T15:16:48.138Z,90.80
2022-07-29T15:19:15.784Z,90.50
2022-07-29T15:21:48.771Z,90.50
2022-07-29T15:24:19.661Z,89.90
2022-07-29T15:26:47.507Z,90.50
2022-07-29T15:29:15.792Z,87.70
2022-07-29T15:31:43.223Z,87.70
2022-07-29T15:34:11.420Z,84.90
2022-07-29T15:36:54.279Z,85.90
2022-07-29T15:39:23.013Z,86.40
2022-07-29T15:41:51.225Z,88.60
2022-07-29T15:44:22.674Z,88.90
2022-07-29T15:47:07.289Z,87.60
2022-07-29T15:49:47.788Z,86.80
2022-07-29T15:52:26.107Z,87.40
2022-07-29T15:54:57.792Z,88.10
2022-07-29T15:57:25.477Z,88.70
2022-07-29T15:59:52.658Z,89.40
2022-07-29T16:02:20.204Z,89.70
2022-07-29T16:04:47.498Z,89.80
2022-07-29T16:07:15.327Z,90.00
2022-07-29T16:09:48.190Z,90.10
2022-07-29T16:12:19.964Z,90.20
2022-07-29T16:14:49.605Z,90.80
2022-07-29T16:17:18.138Z,91.20
2022-07-29T16:19:45.831Z,90.80
2022-07-29T16:22:13.502Z,90.80
2022-07-29T16:24:40.988Z,91.70
2022-07-29T16:27:08.327Z,91.50
2022-07-29T16:29:37.398Z,88.20
2022-07-29T16:32:05.911Z,90.40
2022-07-29T16:34:33.340Z,88.40
2022-07-29T16:37:00.863Z,86.80
2022-07-29T16:39:29.658Z,85.60
2022-07-29T16:42:00.295Z,85.60
2022-07-29T16:44:28.146Z,84.40
2022-07-29T16:46:58.847Z,84.90
2022-07-29T16:49:27.392Z,84.00
2022-07-29T16:51:54.714Z,82.30
2022-07-29T16:54:23.547Z,83.70
2022-07-29T16:56:50.787Z,83.30
2022-07-29T16:59:18.751Z,82.00
2022-07-29T17:01:45.973Z,82.20
2022-07-29T17:04:14.948Z,80.30
2022-07-29T17:06:42.369Z,81.20
2022-07-29T17:09:10.961Z,79.00
2022-07-29T17:11:52.349Z,77.70
2022-07-29T17:14:25.831Z,76.50
2022-07-29T17:17:00.441Z,74.80
2022-07-29T17:19:33.775Z,75.50
2022-07-29T17:22:09.494Z,76.30
2022-07-29T17:24:40.864Z,75.20
2022-07-29T17:27:09.617Z,75.70
2022-07-29T17:29:38.393Z,76.40
2022-07-29T17:32:08.216Z,76.80
2022-07-29T17:34:36.904Z,75.70
2022-07-29T17:37:08.170Z,75.70
2022-07-29T17:39:35.703Z,75.80
2022-07-29T17:42:04.909Z,76.60
2022-07-29T17:44:36.104Z,75.90
2022-07-29T17:47:05.422Z,76.20
2022-07-29T17:49:33.449Z,75.70
2022-07-29T17:52:03.598Z,76.80
2022-07-29T17:54:30.648Z,74.70
2022-07-29T17:56:57.818Z,77.10
2022-07-29T17:59:24.979Z,79.50
2022-07-29T18:01:53.175Z,77.30
2022-07-29T18:04:21.114Z,76.30
2022-07-29T18:06:48.173Z,76.50
2022-07-29T18:09:16.816Z,76.70
2022-07-29T18:11:44.380Z,78.20
2022-07-29T18:14:14.330Z,80.00
2022-07-29T18:16:41.354Z,78.10
2022-07-29T18:19:08.813Z,80.60
2022-07-29T18:21:42.614Z,80.40
2022-07-29T18:24:18.183Z,80.30
2022-07-29T18:26:45.291Z,78.00
2022-07-29T18:29:12.371Z,76.60
2022-07-29T18:31:41.393Z,76.60
2022-07-29T18:34:08.552Z,78.20
2022-07-29T18:36:36.033Z,80.00
2022-07-29T18:39:03.233Z,80.80
2022-07-29T18:41:30.244Z,80.40
2022-07-29T18:43:57.677Z,81.80
2022-07-29T18:46:25.860Z,82.70
2022-07-29T18:48:53.073Z,83.40
2022-07-29T18:51:20.427Z,84.00
2022-07-29T18:53:47.561Z,83.00
2022-07-29T18:56:14.845Z,82.90
2022-07-29T18:58:41.882Z,82.50
2022-07-29T19:01:09.926Z,82.50
2022-07-29T19:03:39.627Z,83.60
2022-07-29T19:06:06.495Z,84.40
2022-07-29T19:08:36.272Z,84.20
2022-07-29T19:11:03.206Z,84.20
2022-07-29T19:13:31.022Z,83.80
2022-07-29T19:15:58.201Z,83.90
2022-07-29T19:18:25.319Z,84.60
2022-07-29T19:20:52.613Z,84.20
2022-07-29T19:23:19.822Z,84.90
2022-07-29T19:25:53.455Z,85.40
2022-07-29T19:28:22.710Z,85.20
2022-07-29T19:30:50.122Z,85.80
2022-07-29T19:33:19.572Z,85.10
2022-07-29T19:35:49.291Z,85.40
2022-07-29T19:38:19.988Z,85.90
2022-07-29T19:40:49.164Z,87.10
2022-07-29T19:43:51.592Z,87.70
2022-07-29T19:46:03.513Z,87.40
2022-07-29T19:48:31.181Z,88.60
2022-07-29T19:50:58.886Z,89.50
2022-07-29T19:53:25.905Z,89.90
2022-07-29T19:55:53.318Z,89.30
2022-07-29T19:58:23.695Z,89.30
2022-07-29T20:00:54.458Z,90.00
2022-07-29T20:03:21.914Z,90.00
2022-07-29T20:05:53.189Z,89.90
2022-07-29T20:08:21.346Z,90.00
2022-07-29T20:10:48.598Z,90.20
2022-07-29T20:13:15.987Z,91.10
2022-07-29T20:15:43.659Z,91.20
2022-07-29T20:18:10.826Z,91.40
2022-07-29T20:20:38.197Z,91.50
2022-07-29T20:23:06.680Z,91.80
2022-07-29T20:25:33.828Z,92.10
2022-07-29T20:28:01.030Z,92.10
2022-07-29T20:30:28.138Z,92.30
2022-07-29T20:32:56.470Z,91.90
2022-07-29T20:35:25.771Z,92.00
2022-07-29T20:37:56.059Z,91.60
2022-07-29T20:40:25.866Z,91.80
2022-07-29T20:42:54.206Z,92.00
2022-07-29T20:45:23.621Z,92.20
2022-07-29T20:47:52.110Z,92.70
2022-07-29T20:50:24.074Z,93.30
2022-07-29T20:52:52.069Z,93.70
2022-07-29T20:55:19.131Z,93.10
2022-07-29T20:57:46.415Z,93.00
2022-07-29T21:00:14.457Z,93.20
2022-07-29T21:02:42.005Z,93.00
2022-07-29T21:05:09.354Z,92.80
2022-07-29T21:07:36.524Z,93.20
2022-07-29T21:10:04.042Z,93.10
2022-07-29T21:12:31.000Z,93.50
2022-07-29T21:14:58.114Z,93.80
2022-07-29T21:17:25.162Z,93.30
2022-07-29T21:19:53.404Z,93.00
2022-07-29T21:22:22.282Z,93.50
2022-07-29T21:24:50.736Z,93.90
2022-07-29T21:27:38.121Z,94.20
2022-07-29T21:30:07.309Z,94.40
2022-07-29T21:32:34.830Z,94.50
2022-07-29T21:35:02.226Z,94.80
2022-07-29T21:37:29.491Z,95.40
2022-07-29T21:39:56.728Z,95.80
2022-07-29T21:42:23.689Z,96.20
2022-07-29T21:44:51.533Z,96.20
2022-07-29T21:47:18.725Z,96.70
2022-07-29T21:49:47.528Z,95.50
2022-07-29T21:52:18.195Z,95.90
2022-07-29T21:54:45.307Z,96.40
2022-07-29T21:57:12.502Z,96.70
2022-07-29T21:59:39.537Z,97.00
2022-07-29T22:02:07.067Z,97.10
2022-07-29T22:04:36.249Z,97.10
2022-07-29T22:07:03.803Z,97.10
2022-07-29T22:09:31.234Z,97.20
2022-07-29T22:11:58.337Z,97.10
2022-07-29T22:14:25.436Z,97.20
2022-07-29T22:16:53.012Z,97.10
2022-07-29T22:19:27.325Z,97.10
2022-07-29T22:21:54.856Z,97.20
2022-07-29T22:24:22.015Z,97.30
2022-07-29T22:26:49.769Z,97.30
2022-07-29T22:29:17.832Z,97.20
2022-07-29T22:31:45.149Z,97.50
2022-07-29T22:34:15.307Z,97.80
2022-07-29T22:36:43.449Z,97.90
2022-07-29T22:39:11.202Z,98.00
2022-07-29T22:41:42.618Z,98.00
2022-07-29T22:44:09.586Z,98.10
2022-07-29T22:46:36.977Z,98.30
2022-07-29T22:49:05.744Z,98.40
2022-07-29T22:51:33.863Z,98.30
2022-07-29T22:54:00.890Z,98.70
2022-07-29T22:56:27.933Z,98.80
2022-07-29T22:58:55.601Z,98.60
2022-07-29T23:01:37.558Z,98.90
2022-07-29T23:04:06.080Z,99.00
2022-07-29T23:06:35.018Z,99.40
2022-07-29T23:09:02.145Z,99.60
2022-07-29T23:11:29.544Z,99.90
2022-07-29T23:13:56.634Z,99.90
2022-07-29T23:16:26.038Z,99.90
2022-07-29T23:18:53.503Z,99.90
2022-07-29T23:21:20.991Z,99.30
2022-07-29T23:23:49.112Z,98.60
2022-07-29T23:26:17.020Z,99.10
2022-07-29T23:28:45.641Z,99.30
2022-07-29T23:31:13.623Z,99.60
2022-07-29T23:33:41.666Z,99.80
2022-07-29T23:36:08.869Z,99.80
2022-07-29T23:38:39.230Z,99.70
2022-07-29T23:41:09.101Z,99.70
2022-07-29T23:43:37.569Z,99.90
2022-07-29T23:46:06.429Z,99.90
2022-07-29T23:48:34.189Z,99.90
2022-07-29T23:51:01.237Z,99.90
2022-07-29T23:53:29.077Z,99.90
2022-07-29T23:55:57.280Z,99.90
2022-07-29T23:58:24.530Z,99.90
